Chitina, AK (99566)

12:22 PM AKST on December 07, 2016 (GMT -0900)
Kenny Lake School | | Change Station

Elev 1211 ft 61.73 °N, 145.01 °W | Updated 37 seconds ago

Light Snow
Light Snow Mist
-3.8 °F
Feels Like -4 °F
N
0.0
Wind Variable Wind from West
Gusts 0.0 mph

Today
High -- | Low -- °F
--% Chance of Precip.
Yesterday
High -- | Low -- °F
Precip. -- in
Pressure 30.33 in
Visibility 4.0 miles
Clouds Overcast 3000 ft
Windchill -4 °F
Dew Point -8 °F
Humidity 81%
Rainfall 0.00 in
Snow Depth Not available.
9:39 AM 3:19 PM
First Quarter, 56% visible
SPECI PAGK 072120Z AUTO 00000KT 4SM -SN BR OVC030 M20/M22 A3033 RMK AO2 P0000 T12001222 TSNO
Pressure 30.33 in
Visibility 4.0 miles
Clouds Overcast 3000 ft
Windchill -4 °F
Dew Point -8 °F
Humidity 81%
Rainfall 0.00 in
Snow Depth Not available.
9:39 AM 3:19 PM
First Quarter, 56% visible
SPECI PAGK 072120Z AUTO 00000KT 4SM -SN BR OVC030 M20/M22 A3033 RMK AO2 P0000 T12001222 TSNO

10-Day Weather Forecast

Almanac

Astronomy

Dec. 07, 2016 Rise Set
Actual Time
Civil Twilight
Nautical Twilight
Astronomical Twilight
Moon
Length of Visible Light
Length of Day
Tomorrow will be .
, % of the Moon is Illuminated

Today's Extremes

State Highs State Lows

Community

WunderPhotos

Upload Photos

1,956,164 photos uploaded!

WunderBlog® & News

Nearby

Air Quality

  Air Quality AQ Index Pollutant
Not available.

Snow Depth

Station Depth Elevation

Earthquake Activity

City Distance Mag. Time & Date
Minimum magnitude displayed is 2.5.

Coastal Water Temperatures

Place Temperature

Stations

Nearby Weather Stations

Station Location Temp. Windchill Dew Point Humidity Wind Precip. Elev Updated Type
                   

Watches & Warnings

There are currently no watches in effect.